sensor_id;sensor_type;location;lat;lon;timestamp;P1;durP1;ratioP1;P2;durP2;ratioP2
7493;SDS011;3788;49.902;8.590;2024-02-16T00:00:04;2.20;;;1.97;;
7493;SDS011;3788;49.902;8.590;2024-02-16T00:02:32;2.70;;;2.50;;
7493;SDS011;3788;49.902;8.590;2024-02-16T00:04:59;2.73;;;2.10;;
7493;SDS011;3788;49.902;8.590;2024-02-16T00:07:25;2.33;;;2.13;;
7493;SDS011;3788;49.902;8.590;2024-02-16T00:09:53;2.33;;;2.00;;
7493;SDS011;3788;49.902;8.590;2024-02-16T00:12:20;3.00;;;2.30;;
7493;SDS011;3788;49.902;8.590;2024-02-16T00:14:47;2.30;;;2.10;;
7493;SDS011;3788;49.902;8.590;2024-02-16T00:17:14;3.03;;;2.40;;
7493;SDS011;3788;49.902;8.590;2024-02-16T00:19:40;1.97;;;1.87;;
7493;SDS011;3788;49.902;8.590;2024-02-16T00:22:07;2.50;;;2.00;;
7493;SDS011;3788;49.902;8.590;2024-02-16T00:24:34;2.47;;;2.27;;
7493;SDS011;3788;49.902;8.590;2024-02-16T00:27:03;2.27;;;2.07;;
7493;SDS011;3788;49.902;8.590;2024-02-16T00:29:30;2.87;;;2.30;;
7493;SDS011;3788;49.902;8.590;2024-02-16T00:31:57;2.77;;;2.13;;
7493;SDS011;3788;49.902;8.590;2024-02-16T00:34:24;2.57;;;2.37;;
7493;SDS011;3788;49.902;8.590;2024-02-16T00:36:50;3.00;;;2.33;;
7493;SDS011;3788;49.902;8.590;2024-02-16T00:39:18;3.27;;;2.37;;
7493;SDS011;3788;49.902;8.590;2024-02-16T00:41:44;3.53;;;2.60;;
7493;SDS011;3788;49.902;8.590;2024-02-16T00:44:12;2.60;;;2.40;;
7493;SDS011;3788;49.902;8.590;2024-02-16T00:46:39;3.63;;;2.70;;
7493;SDS011;3788;49.902;8.590;2024-02-16T00:49:06;3.27;;;2.67;;
7493;SDS011;3788;49.902;8.590;2024-02-16T00:51:35;3.70;;;2.53;;
7493;SDS011;3788;49.902;8.590;2024-02-16T00:54:01;3.27;;;2.80;;
7493;SDS011;3788;49.902;8.590;2024-02-16T00:56:29;3.87;;;3.00;;
7493;SDS011;3788;49.902;8.590;2024-02-16T00:58:56;2.60;;;2.27;;
7493;SDS011;3788;49.902;8.590;2024-02-16T01:01:24;2.40;;;2.20;;
7493;SDS011;3788;49.902;8.590;2024-02-16T01:03:51;2.60;;;2.40;;
7493;SDS011;3788;49.902;8.590;2024-02-16T01:06:18;2.30;;;2.10;;
7493;SDS011;3788;49.902;8.590;2024-02-16T01:08:44;2.73;;;2.27;;
7493;SDS011;3788;49.902;8.590;2024-02-16T01:11:11;2.17;;;1.97;;
7493;SDS011;3788;49.902;8.590;2024-02-16T01:13:38;2.67;;;2.47;;
7493;SDS011;3788;49.902;8.590;2024-02-16T01:16:05;2.07;;;1.90;;
7493;SDS011;3788;49.902;8.590;2024-02-16T01:18:34;2.63;;;2.17;;
7493;SDS011;3788;49.902;8.590;2024-02-16T01:21:02;2.53;;;2.33;;
7493;SDS011;3788;49.902;8.590;2024-02-16T01:23:29;3.37;;;2.10;;
7493;SDS011;3788;49.902;8.590;2024-02-16T01:25:56;2.50;;;2.30;;
7493;SDS011;3788;49.902;8.590;2024-02-16T01:28:22;3.27;;;2.63;;
7493;SDS011;3788;49.902;8.590;2024-02-16T01:30:49;2.87;;;2.27;;
7493;SDS011;3788;49.902;8.590;2024-02-16T01:33:16;2.40;;;2.20;;
7493;SDS011;3788;49.902;8.590;2024-02-16T01:35:44;2.67;;;2.47;;
7493;SDS011;3788;49.902;8.590;2024-02-16T01:38:11;2.30;;;2.07;;
7493;SDS011;3788;49.902;8.590;2024-02-16T01:40:38;3.60;;;2.50;;
7493;SDS011;3788;49.902;8.590;2024-02-16T01:43:05;2.57;;;2.37;;
7493;SDS011;3788;49.902;8.590;2024-02-16T01:45:32;2.50;;;2.30;;
7493;SDS011;3788;49.902;8.590;2024-02-16T01:47:59;2.20;;;2.00;;
7493;SDS011;3788;49.902;8.590;2024-02-16T01:50:25;2.47;;;2.27;;
7493;SDS011;3788;49.902;8.590;2024-02-16T01:52:55;2.73;;;2.37;;
7493;SDS011;3788;49.902;8.590;2024-02-16T01:55:22;2.23;;;2.10;;
7493;SDS011;3788;49.902;8.590;2024-02-16T01:57:49;2.20;;;2.00;;
7493;SDS011;3788;49.902;8.590;2024-02-16T02:00:16;2.17;;;1.97;;
7493;SDS011;3788;49.902;8.590;2024-02-16T02:02:44;3.47;;;2.60;;
7493;SDS011;3788;49.902;8.590;2024-02-16T02:05:12;2.27;;;2.03;;
7493;SDS011;3788;49.902;8.590;2024-02-16T02:07:40;2.30;;;2.10;;
7493;SDS011;3788;49.902;8.590;2024-02-16T02:10:08;2.70;;;2.20;;
7493;SDS011;3788;49.902;8.590;2024-02-16T02:12:37;2.77;;;2.37;;
7493;SDS011;3788;49.902;8.590;2024-02-16T02:15:04;1.70;;;1.60;;
7493;SDS011;3788;49.902;8.590;2024-02-16T02:17:31;2.33;;;2.13;;
7493;SDS011;3788;49.902;8.590;2024-02-16T02:19:58;2.03;;;1.87;;
7493;SDS011;3788;49.902;8.590;2024-02-16T02:22:26;2.53;;;2.13;;
7493;SDS011;3788;49.902;8.590;2024-02-16T02:24:52;2.73;;;2.17;;
7493;SDS011;3788;49.902;8.590;2024-02-16T02:27:20;3.33;;;2.40;;
7493;SDS011;3788;49.902;8.590;2024-02-16T02:29:47;2.20;;;2.00;;
7493;SDS011;3788;49.902;8.590;2024-02-16T02:32:14;2.43;;;2.20;;
7493;SDS011;3788;49.902;8.590;2024-02-16T02:34:41;3.33;;;3.03;;
7493;SDS011;3788;49.902;8.590;2024-02-16T02:37:08;2.70;;;2.50;;
7493;SDS011;3788;49.902;8.590;2024-02-16T02:39:36;3.63;;;2.40;;
7493;SDS011;3788;49.902;8.590;2024-02-16T02:42:03;2.40;;;2.20;;
7493;SDS011;3788;49.902;8.590;2024-02-16T02:44:30;2.63;;;2.40;;
7493;SDS011;3788;49.902;8.590;2024-02-16T02:46:57;3.50;;;2.47;;
7493;SDS011;3788;49.902;8.590;2024-02-16T02:49:24;3.10;;;2.30;;
7493;SDS011;3788;49.902;8.590;2024-02-16T02:51:50;3.03;;;2.33;;
7493;SDS011;3788;49.902;8.590;2024-02-16T02:54:17;2.47;;;2.20;;
7493;SDS011;3788;49.902;8.590;2024-02-16T02:56:46;2.23;;;2.10;;
7493;SDS011;3788;49.902;8.590;2024-02-16T02:59:12;2.13;;;1.93;;
7493;SDS011;3788;49.902;8.590;2024-02-16T03:01:39;2.37;;;2.10;;
7493;SDS011;3788;49.902;8.590;2024-02-16T03:04:06;2.20;;;2.00;;
7493;SDS011;3788;49.902;8.590;2024-02-16T03:06:34;2.63;;;2.03;;
7493;SDS011;3788;49.902;8.590;2024-02-16T03:09:01;1.93;;;1.83;;
7493;SDS011;3788;49.902;8.590;2024-02-16T03:11:28;2.10;;;1.90;;
7493;SDS011;3788;49.902;8.590;2024-02-16T03:13:56;2.43;;;1.93;;
7493;SDS011;3788;49.902;8.590;2024-02-16T03:16:22;2.00;;;1.80;;
7493;SDS011;3788;49.902;8.590;2024-02-16T03:18:49;2.63;;;2.10;;
7493;SDS011;3788;49.902;8.590;2024-02-16T03:21:15;1.90;;;1.80;;
7493;SDS011;3788;49.902;8.590;2024-02-16T03:23:42;2.00;;;1.90;;
7493;SDS011;3788;49.902;8.590;2024-02-16T03:26:13;1.70;;;1.60;;
7493;SDS011;3788;49.902;8.590;2024-02-16T03:28:40;1.57;;;1.47;;
7493;SDS011;3788;49.902;8.590;2024-02-16T03:31:15;1.80;;;1.63;;
7493;SDS011;3788;49.902;8.590;2024-02-16T03:33:42;1.63;;;1.53;;
7493;SDS011;3788;49.902;8.590;2024-02-16T03:36:09;1.70;;;1.60;;
7493;SDS011;3788;49.902;8.590;2024-02-16T03:38:37;2.80;;;1.80;;
7493;SDS011;3788;49.902;8.590;2024-02-16T03:41:04;1.53;;;1.43;;
7493;SDS011;3788;49.902;8.590;2024-02-16T03:43:31;2.40;;;2.20;;
7493;SDS011;3788;49.902;8.590;2024-02-16T03:45:58;2.30;;;1.87;;
7493;SDS011;3788;49.902;8.590;2024-02-16T03:48:25;2.30;;;1.90;;
7493;SDS011;3788;49.902;8.590;2024-02-16T03:50:52;1.90;;;1.80;;
7493;SDS011;3788;49.902;8.590;2024-02-16T03:53:19;2.63;;;1.93;;
7493;SDS011;3788;49.902;8.590;2024-02-16T03:55:45;2.03;;;1.90;;
7493;SDS011;3788;49.902;8.590;2024-02-16T03:58:12;2.17;;;2.00;;
7493;SDS011;3788;49.902;8.590;2024-02-16T04:00:39;2.07;;;1.90;;
7493;SDS011;3788;49.902;8.590;2024-02-16T04:03:06;2.37;;;2.17;;
7493;SDS011;3788;49.902;8.590;2024-02-16T04:05:33;2.20;;;2.00;;
7493;SDS011;3788;49.902;8.590;2024-02-16T04:08:00;2.43;;;2.23;;
7493;SDS011;3788;49.902;8.590;2024-02-16T04:10:28;2.20;;;2.00;;
7493;SDS011;3788;49.902;8.590;2024-02-16T04:12:55;2.80;;;2.07;;
7493;SDS011;3788;49.902;8.590;2024-02-16T04:15:22;2.00;;;1.90;;
7493;SDS011;3788;49.902;8.590;2024-02-16T04:17:49;3.03;;;2.37;;
7493;SDS011;3788;49.902;8.590;2024-02-16T04:20:15;3.50;;;2.23;;
7493;SDS011;3788;49.902;8.590;2024-02-16T04:22:44;2.73;;;2.27;;
7493;SDS011;3788;49.902;8.590;2024-02-16T04:25:10;2.57;;;2.37;;
7493;SDS011;3788;49.902;8.590;2024-02-16T04:27:37;2.50;;;2.30;;
7493;SDS011;3788;49.902;8.590;2024-02-16T04:30:04;2.77;;;2.43;;
7493;SDS011;3788;49.902;8.590;2024-02-16T04:32:32;3.53;;;2.50;;
7493;SDS011;3788;49.902;8.590;2024-02-16T04:34:59;3.57;;;2.70;;
7493;SDS011;3788;49.902;8.590;2024-02-16T04:37:25;2.50;;;2.30;;
7493;SDS011;3788;49.902;8.590;2024-02-16T04:39:53;4.00;;;2.67;;
7493;SDS011;3788;49.902;8.590;2024-02-16T04:42:20;2.80;;;2.60;;
7493;SDS011;3788;49.902;8.590;2024-02-16T04:44:47;3.13;;;2.70;;
7493;SDS011;3788;49.902;8.590;2024-02-16T04:47:14;3.27;;;2.80;;
7493;SDS011;3788;49.902;8.590;2024-02-16T04:49:41;4.10;;;2.80;;
7493;SDS011;3788;49.902;8.590;2024-02-16T04:52:09;4.07;;;2.80;;
7493;SDS011;3788;49.902;8.590;2024-02-16T04:54:36;3.37;;;3.07;;
7493;SDS011;3788;49.902;8.590;2024-02-16T04:57:06;3.30;;;2.90;;
7493;SDS011;3788;49.902;8.590;2024-02-16T04:59:33;4.90;;;3.03;;
7493;SDS011;3788;49.902;8.590;2024-02-16T05:02:00;3.77;;;3.23;;
7493;SDS011;3788;49.902;8.590;2024-02-16T05:04:28;3.30;;;3.00;;
7493;SDS011;3788;49.902;8.590;2024-02-16T05:06:55;4.20;;;2.67;;
7493;SDS011;3788;49.902;8.590;2024-02-16T05:09:22;3.67;;;2.93;;
7493;SDS011;3788;49.902;8.590;2024-02-16T05:11:51;2.93;;;2.70;;
7493;SDS011;3788;49.902;8.590;2024-02-16T05:14:19;4.10;;;2.70;;
7493;SDS011;3788;49.902;8.590;2024-02-16T05:16:46;3.40;;;2.93;;
7493;SDS011;3788;49.902;8.590;2024-02-16T05:19:13;3.03;;;2.67;;
7493;SDS011;3788;49.902;8.590;2024-02-16T05:21:40;3.40;;;2.70;;
7493;SDS011;3788;49.902;8.590;2024-02-16T05:24:06;2.50;;;2.30;;
7493;SDS011;3788;49.902;8.590;2024-02-16T05:26:33;2.70;;;2.50;;
7493;SDS011;3788;49.902;8.590;2024-02-16T05:29:00;2.20;;;2.00;;
7493;SDS011;3788;49.902;8.590;2024-02-16T05:31:28;2.57;;;2.37;;
7493;SDS011;3788;49.902;8.590;2024-02-16T05:33:56;2.47;;;2.27;;
7493;SDS011;3788;49.902;8.590;2024-02-16T05:36:23;3.20;;;2.40;;
7493;SDS011;3788;49.902;8.590;2024-02-16T05:38:55;3.87;;;2.67;;
7493;SDS011;3788;49.902;8.590;2024-02-16T05:41:24;2.27;;;2.10;;
7493;SDS011;3788;49.902;8.590;2024-02-16T05:43:51;2.67;;;2.43;;
7493;SDS011;3788;49.902;8.590;2024-02-16T05:46:17;2.40;;;2.20;;
7493;SDS011;3788;49.902;8.590;2024-02-16T05:48:45;2.63;;;2.43;;
7493;SDS011;3788;49.902;8.590;2024-02-16T05:51:12;2.30;;;2.10;;
7493;SDS011;3788;49.902;8.590;2024-02-16T05:53:39;2.33;;;2.10;;
7493;SDS011;3788;49.902;8.590;2024-02-16T05:56:06;3.37;;;3.07;;
7493;SDS011;3788;49.902;8.590;2024-02-16T05:58:35;2.20;;;2.00;;
7493;SDS011;3788;49.902;8.590;2024-02-16T06:01:01;2.97;;;2.37;;
7493;SDS011;3788;49.902;8.590;2024-02-16T06:03:28;2.80;;;2.17;;
7493;SDS011;3788;49.902;8.590;2024-02-16T06:05:56;2.47;;;2.27;;
7493;SDS011;3788;49.902;8.590;2024-02-16T06:08:23;3.40;;;2.50;;
7493;SDS011;3788;49.902;8.590;2024-02-16T06:10:49;2.93;;;2.63;;
7493;SDS011;3788;49.902;8.590;2024-02-16T06:13:19;2.80;;;2.60;;
7493;SDS011;3788;49.902;8.590;2024-02-16T06:15:47;2.93;;;2.70;;
7493;SDS011;3788;49.902;8.590;2024-02-16T06:18:13;3.20;;;2.90;;
7493;SDS011;3788;49.902;8.590;2024-02-16T06:20:40;3.13;;;2.83;;
7493;SDS011;3788;49.902;8.590;2024-02-16T06:23:08;3.07;;;2.80;;
7493;SDS011;3788;49.902;8.590;2024-02-16T06:25:35;4.00;;;3.07;;
7493;SDS011;3788;49.902;8.590;2024-02-16T06:28:02;3.37;;;3.07;;
7493;SDS011;3788;49.902;8.590;2024-02-16T06:30:29;3.60;;;2.57;;
7493;SDS011;3788;49.902;8.590;2024-02-16T06:32:56;4.63;;;3.23;;
7493;SDS011;3788;49.902;8.590;2024-02-16T06:35:23;4.22;;;3.30;;
7493;SDS011;3788;49.902;8.590;2024-02-16T06:37:50;2.90;;;2.70;;
7493;SDS011;3788;49.902;8.590;2024-02-16T06:40:18;4.50;;;3.53;;
7493;SDS011;3788;49.902;8.590;2024-02-16T06:42:46;3.40;;;2.90;;
7493;SDS011;3788;49.902;8.590;2024-02-16T06:45:12;4.17;;;3.23;;
7493;SDS011;3788;49.902;8.590;2024-02-16T06:47:39;5.43;;;3.63;;
7493;SDS011;3788;49.902;8.590;2024-02-16T06:50:06;4.53;;;3.40;;
7493;SDS011;3788;49.902;8.590;2024-02-16T06:52:33;5.07;;;3.30;;
7493;SDS011;3788;49.902;8.590;2024-02-16T06:55:00;3.60;;;3.30;;
7493;SDS011;3788;49.902;8.590;2024-02-16T06:57:28;3.23;;;2.93;;
7493;SDS011;3788;49.902;8.590;2024-02-16T06:59:56;4.57;;;3.60;;
7493;SDS011;3788;49.902;8.590;2024-02-16T07:02:23;4.80;;;3.83;;
7493;SDS011;3788;49.902;8.590;2024-02-16T07:04:50;5.27;;;3.33;;
7493;SDS011;3788;49.902;8.590;2024-02-16T07:07:17;4.07;;;3.47;;
7493;SDS011;3788;49.902;8.590;2024-02-16T07:09:43;5.03;;;3.67;;
7493;SDS011;3788;49.902;8.590;2024-02-16T07:12:10;4.53;;;3.47;;
7493;SDS011;3788;49.902;8.590;2024-02-16T07:14:39;3.90;;;3.07;;
7493;SDS011;3788;49.902;8.590;2024-02-16T07:17:06;5.37;;;3.27;;
7493;SDS011;3788;49.902;8.590;2024-02-16T07:19:34;3.67;;;3.27;;
7493;SDS011;3788;49.902;8.590;2024-02-16T07:22:01;5.70;;;3.67;;
7493;SDS011;3788;49.902;8.590;2024-02-16T07:24:28;4.00;;;3.30;;
7493;SDS011;3788;49.902;8.590;2024-02-16T07:26:54;4.63;;;3.17;;
7493;SDS011;3788;49.902;8.590;2024-02-16T07:29:21;4.50;;;3.40;;
7493;SDS011;3788;49.902;8.590;2024-02-16T07:31:49;4.03;;;3.63;;
7493;SDS011;3788;49.902;8.590;2024-02-16T07:34:17;3.50;;;3.20;;
7493;SDS011;3788;49.902;8.590;2024-02-16T07:36:43;4.10;;;3.80;;
7493;SDS011;3788;49.902;8.590;2024-02-16T07:39:10;4.50;;;3.50;;
7493;SDS011;3788;49.902;8.590;2024-02-16T07:41:37;7.27;;;3.80;;
7493;SDS011;3788;49.902;8.590;2024-02-16T07:44:04;5.73;;;3.53;;
7493;SDS011;3788;49.902;8.590;2024-02-16T07:46:31;3.77;;;3.17;;
7493;SDS011;3788;49.902;8.590;2024-02-16T07:48:58;4.07;;;3.50;;
7493;SDS011;3788;49.902;8.590;2024-02-16T07:51:25;4.13;;;3.47;;
7493;SDS011;3788;49.902;8.590;2024-02-16T07:53:52;3.97;;;3.37;;
7493;SDS011;3788;49.902;8.590;2024-02-16T07:56:19;4.00;;;3.47;;
7493;SDS011;3788;49.902;8.590;2024-02-16T07:58:46;5.23;;;3.70;;
7493;SDS011;3788;49.902;8.590;2024-02-16T08:01:12;6.63;;;4.23;;
7493;SDS011;3788;49.902;8.590;2024-02-16T08:03:40;4.67;;;3.70;;
7493;SDS011;3788;49.902;8.590;2024-02-16T08:06:08;6.80;;;3.73;;
7493;SDS011;3788;49.902;8.590;2024-02-16T08:08:35;4.60;;;3.83;;
7493;SDS011;3788;49.902;8.590;2024-02-16T08:11:02;5.40;;;4.13;;
7493;SDS011;3788;49.902;8.590;2024-02-16T08:13:30;6.73;;;4.40;;
7493;SDS011;3788;49.902;8.590;2024-02-16T08:15:56;4.07;;;3.57;;
7493;SDS011;3788;49.902;8.590;2024-02-16T08:18:23;6.73;;;3.90;;
7493;SDS011;3788;49.902;8.590;2024-02-16T08:20:49;6.17;;;3.80;;
7493;SDS011;3788;49.902;8.590;2024-02-16T08:23:18;4.70;;;3.80;;
7493;SDS011;3788;49.902;8.590;2024-02-16T08:25:45;5.73;;;4.10;;
7493;SDS011;3788;49.902;8.590;2024-02-16T08:28:12;4.20;;;3.60;;
7493;SDS011;3788;49.902;8.590;2024-02-16T08:30:39;4.97;;;4.13;;
7493;SDS011;3788;49.902;8.590;2024-02-16T08:33:06;4.67;;;3.57;;
7493;SDS011;3788;49.902;8.590;2024-02-16T08:35:33;5.83;;;4.00;;
7493;SDS011;3788;49.902;8.590;2024-02-16T08:38:00;6.50;;;3.60;;
7493;SDS011;3788;49.902;8.590;2024-02-16T08:40:28;6.30;;;3.90;;
7493;SDS011;3788;49.902;8.590;2024-02-16T08:42:53;5.03;;;3.63;;
7493;SDS011;3788;49.902;8.590;2024-02-16T08:45:20;3.90;;;3.50;;
7493;SDS011;3788;49.902;8.590;2024-02-16T08:47:47;4.07;;;3.50;;
7493;SDS011;3788;49.902;8.590;2024-02-16T08:50:13;7.07;;;4.63;;
7493;SDS011;3788;49.902;8.590;2024-02-16T08:52:40;5.53;;;4.07;;
7493;SDS011;3788;49.902;8.590;2024-02-16T08:55:07;3.97;;;3.63;;
7493;SDS011;3788;49.902;8.590;2024-02-16T08:57:35;4.97;;;3.90;;
7493;SDS011;3788;49.902;8.590;2024-02-16T09:00:02;5.30;;;4.20;;
7493;SDS011;3788;49.902;8.590;2024-02-16T09:02:30;5.27;;;3.93;;
7493;SDS011;3788;49.902;8.590;2024-02-16T09:04:56;4.87;;;3.73;;
7493;SDS011;3788;49.902;8.590;2024-02-16T09:07:23;5.27;;;3.90;;
7493;SDS011;3788;49.902;8.590;2024-02-16T09:09:51;6.33;;;3.57;;
7493;SDS011;3788;49.902;8.590;2024-02-16T09:12:17;4.37;;;3.33;;
7493;SDS011;3788;49.902;8.590;2024-02-16T09:14:45;4.80;;;3.83;;
7493;SDS011;3788;49.902;8.590;2024-02-16T09:17:12;5.33;;;4.30;;
7493;SDS011;3788;49.902;8.590;2024-02-16T09:19:38;6.43;;;4.30;;
7493;SDS011;3788;49.902;8.590;2024-02-16T09:22:05;5.83;;;3.90;;
7493;SDS011;3788;49.902;8.590;2024-02-16T09:24:32;6.23;;;4.13;;
7493;SDS011;3788;49.902;8.590;2024-02-16T09:26:58;7.07;;;3.93;;
7493;SDS011;3788;49.902;8.590;2024-02-16T09:29:28;4.57;;;3.80;;
7493;SDS011;3788;49.902;8.590;2024-02-16T09:31:56;5.53;;;4.10;;
7493;SDS011;3788;49.902;8.590;2024-02-16T09:34:23;6.17;;;4.33;;
7493;SDS011;3788;49.902;8.590;2024-02-16T09:36:49;4.93;;;4.00;;
7493;SDS011;3788;49.902;8.590;2024-02-16T09:39:16;5.13;;;4.60;;
7493;SDS011;3788;49.902;8.590;2024-02-16T09:41:42;6.73;;;4.50;;
7493;SDS011;3788;49.902;8.590;2024-02-16T09:44:12;4.13;;;3.73;;
7493;SDS011;3788;49.902;8.590;2024-02-16T09:46:39;5.33;;;4.40;;
7493;SDS011;3788;49.902;8.590;2024-02-16T09:49:07;4.70;;;4.23;;
7493;SDS011;3788;49.902;8.590;2024-02-16T09:51:35;4.93;;;3.67;;
7493;SDS011;3788;49.902;8.590;2024-02-16T09:54:03;4.90;;;3.77;;
7493;SDS011;3788;49.902;8.590;2024-02-16T09:56:29;4.67;;;3.83;;
7493;SDS011;3788;49.902;8.590;2024-02-16T09:58:57;5.93;;;3.90;;
7493;SDS011;3788;49.902;8.590;2024-02-16T10:01:24;5.83;;;4.23;;
7493;SDS011;3788;49.902;8.590;2024-02-16T10:03:51;7.77;;;4.10;;
7493;SDS011;3788;49.902;8.590;2024-02-16T10:06:19;5.60;;;3.77;;
7493;SDS011;3788;49.902;8.590;2024-02-16T10:08:47;3.73;;;3.43;;
7493;SDS011;3788;49.902;8.590;2024-02-16T10:11:15;5.73;;;3.80;;
7493;SDS011;3788;49.902;8.590;2024-02-16T10:13:53;4.47;;;3.87;;
7493;SDS011;3788;49.902;8.590;2024-02-16T10:16:21;4.97;;;3.50;;
7493;SDS011;3788;49.902;8.590;2024-02-16T10:18:48;4.43;;;3.67;;
7493;SDS011;3788;49.902;8.590;2024-02-16T10:21:24;4.13;;;3.40;;
7493;SDS011;3788;49.902;8.590;2024-02-16T10:23:55;6.93;;;3.50;;
7493;SDS011;3788;49.902;8.590;2024-02-16T10:26:27;4.83;;;3.50;;
7493;SDS011;3788;49.902;8.590;2024-02-16T10:28:55;5.30;;;3.80;;
7493;SDS011;3788;49.902;8.590;2024-02-16T10:31:22;3.97;;;3.43;;
7493;SDS011;3788;49.902;8.590;2024-02-16T10:33:54;3.87;;;3.43;;
7493;SDS011;3788;49.902;8.590;2024-02-16T10:36:22;5.53;;;3.93;;
7493;SDS011;3788;49.902;8.590;2024-02-16T10:38:54;5.50;;;3.40;;
7493;SDS011;3788;49.902;8.590;2024-02-16T10:41:22;3.40;;;3.10;;
7493;SDS011;3788;49.902;8.590;2024-02-16T10:43:53;4.67;;;3.20;;
7493;SDS011;3788;49.902;8.590;2024-02-16T10:46:20;3.60;;;3.30;;
7493;SDS011;3788;49.902;8.590;2024-02-16T10:48:48;4.13;;;3.40;;
7493;SDS011;3788;49.902;8.590;2024-02-16T10:51:18;5.10;;;3.40;;
7493;SDS011;3788;49.902;8.590;2024-02-16T10:53:50;3.20;;;2.90;;
7493;SDS011;3788;49.902;8.590;2024-02-16T10:56:26;4.40;;;3.63;;
7493;SDS011;3788;49.902;8.590;2024-02-16T10:58:54;4.37;;;3.63;;
7493;SDS011;3788;49.902;8.590;2024-02-16T11:01:21;5.27;;;3.93;;
7493;SDS011;3788;49.902;8.590;2024-02-16T11:03:47;5.37;;;3.40;;
7493;SDS011;3788;49.902;8.590;2024-02-16T11:06:14;3.67;;;3.37;;
7493;SDS011;3788;49.902;8.590;2024-02-16T11:08:42;3.93;;;3.17;;
7493;SDS011;3788;49.902;8.590;2024-02-16T11:11:11;5.33;;;3.70;;
7493;SDS011;3788;49.902;8.590;2024-02-16T11:13:48;4.17;;;3.10;;
7493;SDS011;3788;49.902;8.590;2024-02-16T11:16:15;4.03;;;3.30;;
7493;SDS011;3788;49.902;8.590;2024-02-16T11:18:45;4.27;;;3.77;;
7493;SDS011;3788;49.902;8.590;2024-02-16T11:21:14;4.30;;;3.63;;
7493;SDS011;3788;49.902;8.590;2024-02-16T11:23:41;5.17;;;3.40;;
7493;SDS011;3788;49.902;8.590;2024-02-16T11:26:09;6.50;;;3.90;;
7493;SDS011;3788;49.902;8.590;2024-02-16T11:28:38;4.40;;;3.60;;
7493;SDS011;3788;49.902;8.590;2024-02-16T11:31:07;3.73;;;3.10;;
7493;SDS011;3788;49.902;8.590;2024-02-16T11:33:34;4.60;;;3.40;;
7493;SDS011;3788;49.902;8.590;2024-02-16T11:36:01;4.63;;;3.30;;
7493;SDS011;3788;49.902;8.590;2024-02-16T11:38:30;3.27;;;2.90;;
7493;SDS011;3788;49.902;8.590;2024-02-16T11:40:58;4.87;;;2.67;;
7493;SDS011;3788;49.902;8.590;2024-02-16T11:43:29;3.23;;;2.53;;
7493;SDS011;3788;49.902;8.590;2024-02-16T11:45:58;4.07;;;2.63;;
7493;SDS011;3788;49.902;8.590;2024-02-16T11:48:26;2.90;;;2.23;;
7493;SDS011;3788;49.902;8.590;2024-02-16T11:50:58;3.60;;;2.63;;
7493;SDS011;3788;49.902;8.590;2024-02-16T11:53:26;2.97;;;2.17;;
7493;SDS011;3788;49.902;8.590;2024-02-16T11:55:53;3.67;;;2.20;;
7493;SDS011;3788;49.902;8.590;2024-02-16T11:58:20;3.17;;;2.10;;
7493;SDS011;3788;49.902;8.590;2024-02-16T12:00:47;3.33;;;2.10;;
7493;SDS011;3788;49.902;8.590;2024-02-16T12:03:19;2.90;;;2.10;;
7493;SDS011;3788;49.902;8.590;2024-02-16T12:05:50;2.63;;;2.17;;
7493;SDS011;3788;49.902;8.590;2024-02-16T12:08:17;4.07;;;2.20;;
7493;SDS011;3788;49.902;8.590;2024-02-16T12:10:44;3.07;;;2.40;;
7493;SDS011;3788;49.902;8.590;2024-02-16T12:13:12;2.93;;;2.53;;
7493;SDS011;3788;49.902;8.590;2024-02-16T12:15:39;4.07;;;2.50;;
7493;SDS011;3788;49.902;8.590;2024-02-16T12:18:06;3.47;;;2.83;;
7493;SDS011;3788;49.902;8.590;2024-02-16T12:20:34;5.80;;;2.80;;
7493;SDS011;3788;49.902;8.590;2024-02-16T12:23:10;4.97;;;2.90;;
7493;SDS011;3788;49.902;8.590;2024-02-16T12:25:37;2.50;;;2.17;;
7493;SDS011;3788;49.902;8.590;2024-02-16T12:28:04;4.37;;;2.77;;
7493;SDS011;3788;49.902;8.590;2024-02-16T12:30:32;3.53;;;2.10;;
7493;SDS011;3788;49.902;8.590;2024-02-16T12:32:59;5.27;;;2.30;;
7493;SDS011;3788;49.902;8.590;2024-02-16T12:35:26;2.47;;;2.20;;
7493;SDS011;3788;49.902;8.590;2024-02-16T12:37:54;3.90;;;2.37;;
7493;SDS011;3788;49.902;8.590;2024-02-16T12:40:21;4.33;;;2.70;;
7493;SDS011;3788;49.902;8.590;2024-02-16T12:42:48;5.03;;;2.60;;
7493;SDS011;3788;49.902;8.590;2024-02-16T12:45:14;7.07;;;2.77;;
7493;SDS011;3788;49.902;8.590;2024-02-16T12:47:42;2.80;;;2.40;;
7493;SDS011;3788;49.902;8.590;2024-02-16T12:50:08;3.17;;;2.50;;
7493;SDS011;3788;49.902;8.590;2024-02-16T12:52:35;4.37;;;2.40;;
7493;SDS011;3788;49.902;8.590;2024-02-16T12:55:05;3.80;;;2.40;;
7493;SDS011;3788;49.902;8.590;2024-02-16T12:57:33;4.03;;;2.40;;
7493;SDS011;3788;49.902;8.590;2024-02-16T13:00:00;4.23;;;2.43;;
7493;SDS011;3788;49.902;8.590;2024-02-16T13:02:27;4.57;;;2.33;;
7493;SDS011;3788;49.902;8.590;2024-02-16T13:04:55;3.13;;;2.13;;
7493;SDS011;3788;49.902;8.590;2024-02-16T13:07:21;2.57;;;2.33;;
7493;SDS011;3788;49.902;8.590;2024-02-16T13:09:49;3.17;;;1.77;;
7493;SDS011;3788;49.902;8.590;2024-02-16T13:12:17;4.47;;;2.37;;
7493;SDS011;3788;49.902;8.590;2024-02-16T13:14:45;3.53;;;2.27;;
7493;SDS011;3788;49.902;8.590;2024-02-16T13:17:12;3.50;;;2.93;;
7493;SDS011;3788;49.902;8.590;2024-02-16T13:19:38;3.37;;;2.03;;
7493;SDS011;3788;49.902;8.590;2024-02-16T13:22:05;2.40;;;2.13;;
7493;SDS011;3788;49.902;8.590;2024-02-16T13:24:32;2.70;;;1.70;;
7493;SDS011;3788;49.902;8.590;2024-02-16T13:26:59;3.03;;;1.80;;
7493;SDS011;3788;49.902;8.590;2024-02-16T13:29:27;2.90;;;2.10;;
7493;SDS011;3788;49.902;8.590;2024-02-16T13:31:55;3.60;;;1.83;;
7493;SDS011;3788;49.902;8.590;2024-02-16T13:34:22;5.17;;;2.63;;
7493;SDS011;3788;49.902;8.590;2024-02-16T13:36:48;3.97;;;2.23;;
7493;SDS011;3788;49.902;8.590;2024-02-16T13:39:15;2.57;;;2.00;;
7493;SDS011;3788;49.902;8.590;2024-02-16T13:41:42;2.50;;;2.20;;
7493;SDS011;3788;49.902;8.590;2024-02-16T13:44:12;3.33;;;2.37;;
7493;SDS011;3788;49.902;8.590;2024-02-16T13:46:40;4.27;;;2.70;;
7493;SDS011;3788;49.902;8.590;2024-02-16T13:49:07;3.83;;;2.30;;
7493;SDS011;3788;49.902;8.590;2024-02-16T13:51:33;5.13;;;2.63;;
7493;SDS011;3788;49.902;8.590;2024-02-16T13:54:00;4.87;;;2.60;;
7493;SDS011;3788;49.902;8.590;2024-02-16T13:56:26;2.77;;;2.13;;
7493;SDS011;3788;49.902;8.590;2024-02-16T13:58:55;2.90;;;2.03;;
7493;SDS011;3788;49.902;8.590;2024-02-16T14:01:22;3.10;;;2.70;;
7493;SDS011;3788;49.902;8.590;2024-02-16T14:03:50;3.40;;;2.00;;
7493;SDS011;3788;49.902;8.590;2024-02-16T14:06:17;3.47;;;2.10;;
7493;SDS011;3788;49.902;8.590;2024-02-16T14:08:44;4.23;;;2.33;;
7493;SDS011;3788;49.902;8.590;2024-02-16T14:11:12;3.93;;;2.37;;
7493;SDS011;3788;49.902;8.590;2024-02-16T14:13:39;3.40;;;2.13;;
7493;SDS011;3788;49.902;8.590;2024-02-16T14:16:06;3.87;;;2.37;;
7493;SDS011;3788;49.902;8.590;2024-02-16T14:18:33;4.57;;;2.07;;
7493;SDS011;3788;49.902;8.590;2024-02-16T14:21:00;3.00;;;1.97;;
7493;SDS011;3788;49.902;8.590;2024-02-16T14:23:27;3.37;;;2.03;;
7493;SDS011;3788;49.902;8.590;2024-02-16T14:25:53;4.27;;;2.27;;
7493;SDS011;3788;49.902;8.590;2024-02-16T14:28:20;5.03;;;2.67;;
7493;SDS011;3788;49.902;8.590;2024-02-16T14:30:47;2.43;;;1.90;;
7493;SDS011;3788;49.902;8.590;2024-02-16T14:33:13;2.83;;;1.60;;
7493;SDS011;3788;49.902;8.590;2024-02-16T14:35:41;2.57;;;2.03;;
7493;SDS011;3788;49.902;8.590;2024-02-16T14:38:10;2.13;;;1.60;;
7493;SDS011;3788;49.902;8.590;2024-02-16T14:40:38;2.27;;;2.07;;
7493;SDS011;3788;49.902;8.590;2024-02-16T14:43:06;2.90;;;2.33;;
7493;SDS011;3788;49.902;8.590;2024-02-16T14:45:33;2.00;;;1.80;;
7493;SDS011;3788;49.902;8.590;2024-02-16T14:48:03;2.13;;;1.93;;
7493;SDS011;3788;49.902;8.590;2024-02-16T14:50:30;5.07;;;2.40;;
7493;SDS011;3788;49.902;8.590;2024-02-16T14:52:57;5.13;;;2.30;;
7493;SDS011;3788;49.902;8.590;2024-02-16T14:55:25;2.27;;;1.93;;
7493;SDS011;3788;49.902;8.590;2024-02-16T14:57:52;3.33;;;2.03;;
7493;SDS011;3788;49.902;8.590;2024-02-16T15:00:19;4.30;;;2.00;;
7493;SDS011;3788;49.902;8.590;2024-02-16T15:02:48;4.37;;;1.93;;
7493;SDS011;3788;49.902;8.590;2024-02-16T15:05:15;3.13;;;1.90;;
7493;SDS011;3788;49.902;8.590;2024-02-16T15:07:42;4.63;;;1.83;;
7493;SDS011;3788;49.902;8.590;2024-02-16T15:10:09;2.63;;;1.97;;
7493;SDS011;3788;49.902;8.590;2024-02-16T15:12:37;5.97;;;2.70;;
7493;SDS011;3788;49.902;8.590;2024-02-16T15:15:05;2.70;;;1.93;;